Time;durP1;ratioP1;P1;durP2;ratioP2;P2;SDS_P1;SDS_P2;PMS_P1;PMS_P2;Temp;Humidity;BMP_temperature;BMP_pressure;BME280_temperature;BME280_humidity;BME280_pressure;Samples;Min_cycle;Max_cycle;Signal;HPM_P1;HPM_P2
2023/04/26 00:01:49;;;;;;;13.98;3.97;;;;;;;7.80;55.73;97985.25;5011803;28;20053;-66
2023/04/26 00:04:14;;;;;;;12.88;3.60;;;;;;;7.79;55.62;97989.88;5007864;28;20049;-67
2023/04/26 00:06:40;;;;;;;10.05;3.30;;;;;;;7.75;54.99;97991.56;5011801;28;20536;-67
2023/04/26 00:09:06;;;;;;;10.02;3.38;;;;;;;7.70;55.44;98003.34;5012073;28;20029;-66
2023/04/26 00:11:32;;;;;;;10.10;3.10;;;;;;;7.66;54.85;97994.09;5011163;28;20022;-67
2023/04/26 00:13:58;;;;;;;6.10;2.97;;;;;;;7.60;54.84;97996.09;5011930;28;20094;-66
2023/04/26 00:16:23;;;;;;;11.73;3.42;;;;;;;7.60;54.65;98001.53;4994132;28;20022;-67
2023/04/26 00:18:49;;;;;;;8.48;2.97;;;;;;;7.57;54.44;97995.81;5011819;28;20041;-66
2023/04/26 00:21:15;;;;;;;11.77;3.40;;;;;;;7.55;54.45;97995.28;5011732;28;20026;-67
2023/04/26 00:23:41;;;;;;;5.03;2.70;;;;;;;7.52;54.21;98012.28;5011706;28;20034;-66
2023/04/26 00:26:06;;;;;;;12.18;3.30;;;;;;;7.49;53.72;97999.19;5028651;28;20037;-66
2023/04/26 00:28:32;;;;;;;10.48;2.78;;;;;;;7.44;54.23;98002.78;5011291;28;20026;-66
2023/04/26 00:30:57;;;;;;;9.38;2.80;;;;;;;7.41;53.84;98006.06;5012629;28;20033;-66
2023/04/26 00:33:23;;;;;;;12.65;3.42;;;;;;;7.37;54.01;98003.13;5011295;28;20527;-67
2023/04/26 00:35:49;;;;;;;9.40;2.78;;;;;;;7.33;53.90;98012.97;5011548;28;20034;-67
2023/04/26 00:38:14;;;;;;;7.80;2.85;;;;;;;7.28;53.92;98004.81;5011301;28;20475;-66
2023/04/26 00:40:39;;;;;;;11.73;3.35;;;;;;;7.20;53.49;98005.44;5011337;28;20468;-67
2023/04/26 00:43:05;;;;;;;7.82;2.45;;;;;;;7.12;53.45;98006.88;5011413;28;20383;-66
2023/04/26 00:45:31;;;;;;;7.38;2.28;;;;;;;7.09;53.99;98008.25;5020308;28;20030;-67
2023/04/26 00:48:01;;;;;;;7.50;2.88;;;;;;;7.03;53.77;98014.84;5011236;28;20146;-67
2023/04/26 00:50:26;;;;;;;7.43;2.78;;;;;;;6.98;53.73;98017.59;5011404;28;20018;-66
2023/04/26 00:52:52;;;;;;;9.90;3.63;;;;;;;6.90;53.82;98019.03;5011124;28;20038;-66
2023/04/26 00:55:21;;;;;;;8.57;2.65;;;;;;;6.84;53.66;98017.44;5011047;28;20029;-66
2023/04/26 00:57:47;;;;;;;10.20;3.35;;;;;;;6.80;53.80;98025.34;5011111;28;20471;-66
2023/04/26 01:00:13;;;;;;;10.05;3.03;;;;;;;6.77;53.82;98028.63;4993538;28;20036;-66
2023/04/26 01:02:38;;;;;;;9.90;3.60;;;;;;;6.75;54.10;98027.28;5007038;28;20437;-66
2023/04/26 01:05:05;;;;;;;10.48;3.40;;;;;;;6.70;54.54;98031.69;5014719;28;20025;-66
2023/04/26 01:07:31;;;;;;;9.93;3.08;;;;;;;6.66;53.96;98027.88;5010630;28;20078;-66
2023/04/26 01:09:58;;;;;;;6.30;2.80;;;;;;;6.62;54.20;98020.56;5011040;28;20026;-66
2023/04/26 01:12:24;;;;;;;7.68;2.90;;;;;;;6.58;54.09;98024.94;5010629;28;20383;-66
2023/04/26 01:14:50;;;;;;;9.98;3.38;;;;;;;6.54;54.00;98025.50;4993037;28;20033;-66
2023/04/26 01:17:15;;;;;;;7.18;2.85;;;;;;;6.52;54.36;98038.59;5010950;28;20041;-66
2023/04/26 01:19:48;;;;;;;9.57;3.45;;;;;;;6.51;54.30;98036.16;5010913;28;20022;-67
2023/04/26 01:22:13;;;;;;;8.32;3.30;;;;;;;6.48;54.12;98036.72;5002662;28;20037;-66
2023/04/26 01:24:45;;;;;;;6.03;2.88;;;;;;;6.47;54.16;98038.59;5010917;28;20017;-66
2023/04/26 01:27:11;;;;;;;8.52;3.00;;;;;;;6.45;54.37;98042.72;5010730;28;20034;-67
2023/04/26 01:29:36;;;;;;;7.22;2.63;;;;;;;6.43;54.12;98042.97;5010875;28;20074;-66
2023/04/26 01:32:02;;;;;;;6.40;2.50;;;;;;;6.42;54.38;98040.53;5010752;28;20037;-67
2023/04/26 01:34:27;;;;;;;7.82;2.97;;;;;;;6.40;54.52;98043.53;5008263;28;20117;-66
2023/04/26 01:36:52;;;;;;;7.22;2.55;;;;;;;6.39;54.57;98042.72;5010227;28;20037;-67
2023/04/26 01:39:18;;;;;;;7.97;3.13;;;;;;;6.37;54.67;98044.09;5010068;28;20033;-67
2023/04/26 01:41:43;;;;;;;8.10;3.08;;;;;;;6.34;54.58;98039.19;5010412;28;20469;-67
2023/04/26 01:44:09;;;;;;;7.65;3.42;;;;;;;6.31;54.98;98039.78;5009661;28;20037;-67
2023/04/26 01:46:34;;;;;;;6.38;3.13;;;;;;;6.24;54.93;98045.50;5009362;28;20071;-66
2023/04/26 01:49:00;;;;;;;8.20;3.35;;;;;;;6.19;55.01;98045.53;5009403;28;20034;-67
2023/04/26 01:51:25;;;;;;;10.18;3.45;;;;;;;6.17;54.94;98051.25;5012776;28;20026;-66
2023/04/26 01:53:51;;;;;;;10.70;5.85;;;;;;;6.16;55.30;98052.34;4993162;28;20040;-66
2023/04/26 01:56:18;;;;;;;6.72;3.63;;;;;;;6.15;55.15;98053.44;5010095;28;20029;-66
2023/04/26 01:58:43;;;;;;;15.40;6.40;;;;;;;6.10;55.72;98048.00;4992317;28;20109;-66
2023/04/26 02:01:09;;;;;;;14.02;7.88;;;;;;;6.06;55.72;98057.81;4992260;28;20117;-67
2023/04/26 02:03:34;;;;;;;11.75;5.82;;;;;;;6.04;55.76;98054.56;5009877;28;20667;-66
2023/04/26 02:06:00;;;;;;;10.30;4.70;;;;;;;6.00;55.91;98059.75;5009595;28;20037;-66
2023/04/26 02:08:26;;;;;;;8.63;4.05;;;;;;;5.95;56.46;98055.09;5009947;28;20086;-66
2023/04/26 02:10:51;;;;;;;6.28;4.05;;;;;;;5.88;56.38;98057.31;5010057;28;20029;-67
2023/04/26 02:13:18;;;;;;;10.07;3.88;;;;;;;5.81;56.25;98057.56;5009917;28;20021;-66
2023/04/26 02:15:47;;;;;;;7.95;3.92;;;;;;;5.73;56.88;98060.03;5009825;28;20022;-66
2023/04/26 02:18:14;;;;;;;11.32;4.88;;;;;;;5.65;57.04;98056.78;5010230;28;20491;-66
2023/04/26 02:20:43;;;;;;;9.30;3.88;;;;;;;5.60;56.72;98059.50;5005924;28;20022;-67
2023/04/26 02:23:09;;;;;;;9.25;3.97;;;;;;;5.57;57.20;98051.06;4991621;28;20121;-66
2023/04/26 02:25:36;;;;;;;10.40;4.10;;;;;;;5.50;56.88;98056.81;5022116;28;20068;-66
2023/04/26 02:28:02;;;;;;;6.15;3.45;;;;;;;5.47;57.55;98051.91;5009713;28;20384;-67
2023/04/26 02:30:27;;;;;;;8.32;3.88;;;;;;;5.42;57.68;98054.63;5009565;28;20030;-66
2023/04/26 02:32:53;;;;;;;6.55;4.05;;;;;;;5.36;57.21;98054.63;5009723;28;20529;-66
2023/04/26 02:35:19;;;;;;;6.85;3.75;;;;;;;5.34;57.43;98056.78;5009592;28;20025;-66
2023/04/26 02:37:47;;;;;;;9.25;4.00;;;;;;;5.29;58.33;98043.19;5009652;28;20022;-67
2023/04/26 02:40:13;;;;;;;7.15;3.28;;;;;;;5.26;57.82;98049.16;4992746;28;20746;-66
2023/04/26 02:42:39;;;;;;;10.70;3.80;;;;;;;5.22;57.92;98040.75;5009520;28;20018;-67
2023/04/26 02:45:05;;;;;;;8.20;3.70;;;;;;;5.19;58.31;98052.16;5009515;28;20067;-66
2023/04/26 02:47:31;;;;;;;8.93;3.80;;;;;;;5.16;58.65;98055.44;5009478;28;20021;-66
2023/04/26 02:49:56;;;;;;;8.50;3.60;;;;;;;5.14;58.62;98054.88;5009262;28;20071;-66
2023/04/26 02:52:22;;;;;;;8.05;3.03;;;;;;;5.10;58.85;98055.69;5009345;28;20097;-67
2023/04/26 02:54:47;;;;;;;8.75;3.40;;;;;;;5.04;58.77;98050.25;4991687;28;20032;-66
2023/04/26 02:57:13;;;;;;;6.47;2.85;;;;;;;5.01;58.80;98056.22;5024489;28;20137;-66
2023/04/26 02:59:38;;;;;;;9.63;3.92;;;;;;;4.96;58.64;98061.66;5009135;28;20421;-66
2023/04/26 03:02:03;;;;;;;7.28;3.60;;;;;;;4.91;58.71;98059.72;5009452;28;20026;-67
2023/04/26 03:04:32;;;;;;;7.78;4.18;;;;;;;4.87;58.55;98064.09;5008957;28;20045;-66
2023/04/26 03:06:58;;;;;;;8.90;4.33;;;;;;;4.82;58.57;98060.53;5008937;28;20421;-66
2023/04/26 03:09:23;;;;;;;7.93;3.35;;;;;;;4.76;58.63;98060.50;5009013;28;20103;-67
2023/04/26 03:11:49;;;;;;;10.43;3.65;;;;;;;4.71;58.66;98067.84;5009378;28;20070;-66
2023/04/26 03:14:14;;;;;;;8.88;3.92;;;;;;;4.67;59.02;98066.75;5009036;28;20488;-68
2023/04/26 03:16:41;;;;;;;9.60;4.07;;;;;;;4.64;58.98;98067.28;5009845;28;20391;-67
2023/04/26 03:19:07;;;;;;;7.47;3.75;;;;;;;4.60;59.36;98073.25;5008870;28;20029;-65
2023/04/26 03:21:32;;;;;;;7.80;3.20;;;;;;;4.58;59.73;98074.59;5009020;28;20014;-66
2023/04/26 03:23:58;;;;;;;8.90;3.13;;;;;;;4.52;59.08;98081.91;5008987;28;20029;-66
2023/04/26 03:26:23;;;;;;;8.07;3.88;;;;;;;4.47;59.12;98079.19;5009122;28;20071;-68
2023/04/26 03:28:48;;;;;;;8.38;3.47;;;;;;;4.40;59.24;98078.59;5008705;28;20140;-66
2023/04/26 03:31:14;;;;;;;6.53;3.50;;;;;;;4.40;58.99;98082.13;5008928;28;20482;-66
2023/04/26 03:33:39;;;;;;;6.68;2.92;;;;;;;4.41;59.64;98088.38;5009060;28;20093;-65
2023/04/26 03:36:05;;;;;;;6.22;3.58;;;;;;;4.38;59.52;98094.34;5024412;28;20033;-66
2023/04/26 03:38:31;;;;;;;8.90;3.20;;;;;;;4.38;59.19;98097.88;4995052;28;20090;-65
2023/04/26 03:40:56;;;;;;;5.72;3.50;;;;;;;4.38;59.74;98097.06;5012287;28;20508;-65
2023/04/26 03:43:22;;;;;;;8.52;3.83;;;;;;;4.37;59.71;98104.38;4994935;28;20018;-66
2023/04/26 03:45:48;;;;;;;9.52;3.85;;;;;;;4.37;59.78;98111.72;5012171;28;20108;-66
2023/04/26 03:48:15;;;;;;;7.47;3.50;;;;;;;4.36;59.04;98110.09;5012104;28;20074;-65
2023/04/26 03:50:41;;;;;;;7.35;3.90;;;;;;;4.35;59.53;98105.72;4995788;28;20030;-65
2023/04/26 03:53:06;;;;;;;7.85;4.05;;;;;;;4.36;59.97;98105.44;5012203;28;20037;-65
2023/04/26 03:55:32;;;;;;;9.02;4.80;;;;;;;4.36;59.67;98110.88;5012047;28;20038;-65
2023/04/26 03:57:57;;;;;;;12.40;6.53;;;;;;;4.38;60.06;98105.19;5030255;28;20026;-65
2023/04/26 04:00:23;;;;;;;16.38;6.95;;;;;;;4.40;59.81;98112.00;5008128;28;20022;-66
2023/04/26 04:02:48;;;;;;;14.23;6.53;;;;;;;4.40;59.65;98112.00;4993957;28;20098;-65
2023/04/26 04:05:14;;;;;;;8.77;4.20;;;;;;;4.42;59.72;98109.84;5011989;28;20022;-65
2023/04/26 04:07:39;;;;;;;9.77;5.32;;;;;;;4.45;59.58;98122.06;5011880;28;20395;-66
2023/04/26 04:10:06;;;;;;;88.53;30.52;;;;;;;4.44;59.30;98125.88;5011982;28;20046;-65
2023/04/26 04:12:31;;;;;;;17.38;7.82;;;;;;;4.42;60.02;98123.41;5011897;28;20528;-66
2023/04/26 04:14:56;;;;;;;9.52;4.47;;;;;;;4.43;59.62;98130.47;5011829;28;20022;-65
2023/04/26 04:17:22;;;;;;;8.07;4.40;;;;;;;4.41;59.98;98129.91;5063139;28;20081;-65
2023/04/26 04:19:47;;;;;;;9.20;3.42;;;;;;;4.41;59.52;98135.34;5018708;28;20026;-65
2023/04/26 04:22:13;;;;;;;6.15;3.53;;;;;;;4.43;60.11;98141.34;5012849;28;20018;-65
2023/04/26 04:24:38;;;;;;;8.52;3.80;;;;;;;4.46;60.09;98140.00;5012965;28;20115;-65
2023/04/26 04:27:04;;;;;;;8.82;3.42;;;;;;;4.44;59.85;98134.03;5012706;28;20401;-66
2023/04/26 04:29:30;;;;;;;9.45;3.53;;;;;;;4.43;60.10;98144.06;5012875;28;20426;-65
2023/04/26 04:31:55;;;;;;;7.43;3.55;;;;;;;4.42;59.97;98139.69;5011375;28;20033;-65
2023/04/26 04:34:22;;;;;;;8.85;3.70;;;;;;;4.40;59.58;98143.78;5012355;28;20026;-65
2023/04/26 04:36:49;;;;;;;8.02;3.97;;;;;;;4.41;60.50;98142.69;5019153;28;20033;-65
2023/04/26 04:39:15;;;;;;;8.35;3.40;;;;;;;4.42;60.18;98139.69;5018019;28;20048;-65
2023/04/26 04:41:46;;;;;;;8.23;4.00;;;;;;;4.41;60.55;98146.22;5012266;28;20026;-65
2023/04/26 04:44:15;;;;;;;8.15;3.38;;;;;;;4.43;59.56;98149.47;5012531;28;20053;-66
2023/04/26 04:46:41;;;;;;;7.63;3.45;;;;;;;4.47;59.93;98150.59;5011909;28;20025;-65
2023/04/26 04:49:08;;;;;;;9.65;4.00;;;;;;;4.47;60.65;98157.94;5012177;28;20468;-65
2023/04/26 04:51:34;;;;;;;8.07;4.35;;;;;;;4.46;60.86;98148.16;5012240;28;20034;-65
2023/04/26 04:54:10;;;;;;;12.25;4.68;;;;;;;4.49;60.16;98158.47;5012157;28;20109;-66
2023/04/26 04:56:36;;;;;;;9.88;4.55;;;;;;;4.53;61.15;98151.44;5011256;28;20368;-66
2023/04/26 04:59:01;;;;;;;11.45;4.50;;;;;;;4.55;60.45;98157.41;5038271;28;20094;-66
2023/04/26 05:01:26;;;;;;;12.00;4.65;;;;;;;4.53;60.30;98159.56;5011820;28;20038;-66
2023/04/26 05:03:52;;;;;;;16.10;5.85;;;;;;;4.59;60.21;98165.88;5011352;28;20074;-66
2023/04/26 05:06:19;;;;;;;13.65;4.70;;;;;;;4.62;59.89;98165.34;4993762;28;20142;-67
2023/04/26 05:08:44;;;;;;;11.73;5.18;;;;;;;4.66;60.15;98163.72;5009938;28;20088;-67
2023/04/26 05:11:09;;;;;;;9.57;4.20;;;;;;;4.68;60.32;98164.28;5010006;28;20472;-66
2023/04/26 05:13:35;;;;;;;8.45;3.85;;;;;;;4.67;60.22;98162.66;5010648;28;20109;-67
2023/04/26 05:16:00;;;;;;;13.40;4.80;;;;;;;4.71;59.98;98165.66;5010180;28;20041;-67
2023/04/26 05:18:26;;;;;;;8.77;3.97;;;;;;;4.76;60.47;98171.09;4993229;28;20030;-67
2023/04/26 05:20:51;;;;;;;10.48;4.18;;;;;;;4.80;59.83;98174.09;5011022;28;20392;-67
2023/04/26 05:23:16;;;;;;;10.75;3.67;;;;;;;4.84;60.15;98175.19;5010585;28;20053;-67
2023/04/26 05:25:42;;;;;;;6.07;3.22;;;;;;;4.88;60.23;98160.00;5010675;28;20090;-67
2023/04/26 05:28:11;;;;;;;7.30;3.42;;;;;;;4.95;59.81;98163.28;5010578;28;20030;-67
2023/04/26 05:30:37;;;;;;;6.57;3.13;;;;;;;5.00;60.12;98174.19;4993555;28;20038;-66
2023/04/26 05:33:02;;;;;;;7.95;3.40;;;;;;;5.05;60.43;98174.22;5010547;28;20192;-67
2023/04/26 05:35:28;;;;;;;8.38;4.10;;;;;;;5.12;59.99;98181.28;5010740;28;20034;-67
2023/04/26 05:37:53;;;;;;;8.82;4.00;;;;;;;5.14;59.79;98163.63;5036913;28;20109;-66
2023/04/26 05:40:19;;;;;;;5.22;2.95;;;;;;;5.19;60.05;98171.78;5010088;28;20105;-67
2023/04/26 05:42:44;;;;;;;12.68;4.72;;;;;;;5.26;60.26;98173.44;5046014;28;20034;-67
2023/04/26 05:45:10;;;;;;;11.70;4.50;;;;;;;5.31;59.64;98181.59;5011084;28;20060;-67
2023/04/26 05:47:35;;;;;;;9.50;3.70;;;;;;;5.36;59.84;98168.84;5010892;28;20025;-67
2023/04/26 05:50:01;;;;;;;10.63;3.78;;;;;;;5.45;60.23;98179.19;5013500;28;20395;-67
2023/04/26 05:52:27;;;;;;;7.18;3.17;;;;;;;5.51;59.94;98178.94;4991287;28;20023;-67
2023/04/26 05:54:52;;;;;;;9.50;3.20;;;;;;;5.59;59.47;98177.56;4992214;28;20099;-68
2023/04/26 05:57:18;;;;;;;11.45;3.72;;;;;;;5.64;59.27;98179.50;5015490;28;20033;-66
2023/04/26 05:59:43;;;;;;;7.80;3.38;;;;;;;5.69;59.60;98184.09;5006108;28;20095;-65
2023/04/26 06:02:09;;;;;;;12.63;3.88;;;;;;;5.75;59.60;98188.47;5008144;28;20030;-66
2023/04/26 06:04:34;;;;;;;13.40;3.80;;;;;;;5.84;59.68;98203.19;4969532;28;1171976;-66
2023/04/26 06:07:00;;;;;;;11.23;3.58;;;;;;;5.91;59.72;98200.19;5026956;28;20446;-67
2023/04/26 06:09:26;;;;;;;9.05;3.00;;;;;;;5.94;59.26;98203.16;5012018;28;20022;-66
2023/04/26 06:11:51;;;;;;;9.50;3.25;;;;;;;5.97;59.41;98213.50;5022861;28;20022;-66
2023/04/26 06:14:16;;;;;;;9.60;3.83;;;;;;;5.98;58.68;98222.50;5020133;28;20034;-66
2023/04/26 06:16:42;;;;;;;10.88;3.47;;;;;;;6.02;58.89;98226.34;5011274;28;20022;-66
2023/04/26 06:19:07;;;;;;;12.73;3.72;;;;;;;6.05;58.62;98222.25;5012571;28;20047;-67
2023/04/26 06:21:33;;;;;;;7.88;3.40;;;;;;;6.05;58.47;98223.09;5010458;28;20040;-67
2023/04/26 06:23:58;;;;;;;9.25;3.42;;;;;;;6.09;58.59;98228.78;5009857;28;20037;-66
2023/04/26 06:26:23;;;;;;;12.68;4.07;;;;;;;6.13;58.43;98221.72;5009087;28;20520;-66
2023/04/26 06:28:49;;;;;;;9.52;3.38;;;;;;;6.15;57.71;98219.53;5008636;28;20509;-66
2023/04/26 06:31:14;;;;;;;7.10;3.22;;;;;;;6.16;58.32;98215.72;5011217;28;20030;-66
2023/04/26 06:33:39;;;;;;;8.02;3.75;;;;;;;6.19;57.84;98215.19;5008662;28;20041;-68
2023/04/26 06:36:06;;;;;;;10.20;3.90;;;;;;;6.27;57.71;98213.81;5008498;28;20053;-66
2023/04/26 06:38:31;;;;;;;6.53;2.90;;;;;;;6.32;57.99;98213.81;5018482;28;20404;-66
2023/04/26 06:40:56;;;;;;;7.60;2.97;;;;;;;6.39;57.86;98213.50;5019940;28;20024;-65
2023/04/26 06:43:22;;;;;;;9.20;3.28;;;;;;;6.48;57.64;98211.88;5006658;28;20444;-66
2023/04/26 06:45:47;;;;;;;13.07;3.95;;;;;;;6.59;57.52;98209.13;5007583;28;20531;-66
2023/04/26 06:48:13;;;;;;;10.73;3.17;;;;;;;6.65;57.69;98208.84;4989470;28;20026;-66
2023/04/26 06:50:39;;;;;;;7.20;2.70;;;;;;;6.70;57.57;98221.66;4990262;28;20034;-67
2023/04/26 06:53:04;;;;;;;7.10;3.05;;;;;;;6.76;56.98;98225.16;5006843;28;20079;-66
2023/04/26 06:55:29;;;;;;;8.57;3.30;;;;;;;6.83;57.27;98217.50;5007261;28;20045;-66
2023/04/26 06:57:55;;;;;;;8.15;3.33;;;;;;;6.94;57.00;98226.47;5006565;28;20391;-65
2023/04/26 07:00:21;;;;;;;7.68;3.40;;;;;;;7.03;56.11;98216.63;5008219;28;20042;-66
2023/04/26 07:02:48;;;;;;;8.60;3.60;;;;;;;7.08;56.48;98223.97;4988475;28;20138;-66
2023/04/26 07:05:14;;;;;;;11.25;4.80;;;;;;;7.09;56.74;98229.16;5007337;28;20433;-66
2023/04/26 07:07:39;;;;;;;6.72;3.25;;;;;;;7.15;56.20;98219.03;5006472;28;20030;-66
2023/04/26 07:10:06;;;;;;;7.68;3.17;;;;;;;7.18;56.25;98226.66;5005018;28;20033;-66
2023/04/26 07:12:31;;;;;;;8.00;3.30;;;;;;;7.22;56.29;98235.06;5005613;28;20488;-66
2023/04/26 07:14:56;;;;;;;8.05;3.75;;;;;;;7.25;56.16;98229.91;5005803;28;20033;-66
2023/04/26 07:17:22;;;;;;;11.80;5.18;;;;;;;7.24;55.67;98238.34;5006481;28;20037;-67
2023/04/26 07:19:47;;;;;;;11.82;5.22;;;;;;;7.22;55.86;98235.91;5004584;28;20061;-66
2023/04/26 07:22:13;;;;;;;9.82;4.22;;;;;;;7.22;55.88;98240.53;5008091;28;20037;-67
2023/04/26 07:24:38;;;;;;;6.60;3.38;;;;;;;7.25;56.24;98239.97;5005979;28;20022;-67
2023/04/26 07:27:03;;;;;;;6.40;3.85;;;;;;;7.28;56.48;98237.53;5005918;28;20034;-67
2023/04/26 07:29:29;;;;;;;8.27;3.60;;;;;;;7.35;56.08;98239.09;5005590;28;20498;-67
2023/04/26 07:31:55;;;;;;;50.95;20.65;;;;;;;7.39;55.96;98242.91;4989255;28;20038;-67
2023/04/26 07:34:24;;;;;;;60.30;22.98;;;;;;;7.47;56.11;98231.41;5006607;28;20026;-66
2023/04/26 07:36:49;;;;;;;14.07;5.15;;;;;;;7.58;56.03;98240.34;4993869;28;20582;-67
2023/04/26 07:39:15;;;;;;;7.80;3.10;;;;;;;7.67;55.70;98235.94;5006746;28;20037;-67
2023/04/26 07:41:41;;;;;;;6.38;3.03;;;;;;;7.73;55.33;98245.72;5008290;28;20155;-66
2023/04/26 07:44:06;;;;;;;6.72;3.13;;;;;;;7.75;54.57;98237.25;5003746;28;20033;-66
2023/04/26 07:46:33;;;;;;;4.45;2.20;;;;;;;7.71;54.18;98239.72;5005843;28;20025;-67
2023/04/26 07:48:59;;;;;;;6.93;2.85;;;;;;;7.66;54.22;98247.94;5005438;28;20052;-67
2023/04/26 07:51:26;;;;;;;7.05;3.35;;;;;;;7.60;54.20;98240.88;5005666;28;20079;-68
2023/04/26 07:53:51;;;;;;;5.40;2.38;;;;;;;7.60;54.13;98241.72;5005553;28;20018;-67
2023/04/26 07:56:17;;;;;;;7.80;2.00;;;;;;;7.59;53.78;98242.81;5005943;28;20041;-68
2023/04/26 07:58:42;;;;;;;35.47;18.05;;;;;;;7.64;54.16;98241.97;5005925;28;20463;-68
2023/04/26 08:01:10;;;;;;;6.95;3.10;;;;;;;7.65;54.59;98243.59;5005411;28;20105;-68
2023/04/26 08:03:36;;;;;;;6.72;2.70;;;;;;;7.63;54.71;98245.78;5007019;28;20038;-68
2023/04/26 08:06:01;;;;;;;3.33;1.90;;;;;;;7.72;54.82;98252.28;5003326;28;20038;-67
2023/04/26 08:08:27;;;;;;;4.20;1.98;;;;;;;7.80;54.67;98247.34;5012945;28;20109;-67
2023/04/26 08:10:54;;;;;;;3.38;2.05;;;;;;;7.93;54.56;98241.25;4987992;28;20036;-67
2023/04/26 08:13:20;;;;;;;4.05;1.85;;;;;;;8.01;54.03;98239.81;5004894;28;20026;-66
2023/04/26 08:15:46;;;;;;;4.63;2.50;;;;;;;8.04;53.30;98234.59;4982344;28;20022;-67
2023/04/26 08:18:12;;;;;;;3.42;1.58;;;;;;;8.08;53.01;98242.22;5000022;28;20075;-67
2023/04/26 08:20:37;;;;;;;4.82;1.92;;;;;;;8.07;51.77;98248.78;4997714;28;20041;-66
2023/04/26 08:23:03;;;;;;;2.95;1.65;;;;;;;7.99;52.29;98247.47;5006545;28;20068;-68
2023/04/26 08:25:28;;;;;;;5.10;2.40;;;;;;;7.97;52.39;98253.19;5009062;28;20025;-67
2023/04/26 08:27:54;;;;;;;4.35;1.63;;;;;;;7.96;51.74;98265.22;5005538;28;20512;-67
2023/04/26 08:30:20;;;;;;;7.43;3.38;;;;;;;7.89;51.32;98271.00;5007262;28;20218;-67
2023/04/26 08:32:45;;;;;;;5.82;2.58;;;;;;;7.84;51.12;98262.06;5009086;28;20541;-67
2023/04/26 08:35:11;;;;;;;3.88;1.63;;;;;;;7.87;51.75;98253.28;5008968;28;20030;-67
2023/04/26 08:37:37;;;;;;;3.55;1.52;;;;;;;7.98;51.50;98252.09;5008330;28;20399;-68
2023/04/26 08:40:07;;;;;;;4.03;1.35;;;;;;;8.07;51.29;98244.13;4991255;28;20022;-68
2023/04/26 08:42:36;;;;;;;5.20;1.90;;;;;;;8.15;50.48;98245.44;5008780;28;20086;-67
2023/04/26 08:45:02;;;;;;;4.60;2.37;;;;;;;8.22;49.77;98247.81;5008749;28;20030;-67
2023/04/26 08:47:38;;;;;;;3.40;1.52;;;;;;;8.23;50.58;98250.28;5009142;28;20037;-67
2023/04/26 08:50:05;;;;;;;4.93;1.75;;;;;;;8.25;49.00;98256.28;5006257;28;20034;-67
2023/04/26 08:52:31;;;;;;;4.57;1.80;;;;;;;8.19;48.95;98257.44;5007630;28;20033;-67
2023/04/26 08:54:58;;;;;;;4.15;1.42;;;;;;;8.14;48.49;98260.19;5008715;28;20361;-68
2023/04/26 08:57:25;;;;;;;4.22;1.13;;;;;;;8.03;49.11;98275.84;5009322;28;20485;-67
2023/04/26 08:59:52;;;;;;;5.88;4.05;;;;;;;7.91;49.04;98276.22;5009110;28;20030;-68
2023/04/26 09:02:20;;;;;;;4.25;1.48;;;;;;;7.84;49.72;98286.63;5009215;28;20045;-68
2023/04/26 09:04:47;;;;;;;5.70;2.50;;;;;;;7.78;49.90;98279.56;5009260;28;20057;-68
2023/04/26 09:07:20;;;;;;;2.78;1.50;;;;;;;7.72;50.42;98276.84;4991688;28;20034;-68
2023/04/26 09:09:52;;;;;;;4.75;1.75;;;;;;;7.67;50.70;98282.34;5009184;28;20057;-68
2023/04/26 09:12:19;;;;;;;3.90;2.00;;;;;;;7.65;50.79;98279.06;5009120;28;20030;-67
2023/04/26 09:14:45;;;;;;;5.72;1.50;;;;;;;7.69;50.78;98273.88;5008866;28;20038;-67
2023/04/26 09:17:30;;;;;;;3.13;1.65;;;;;;;7.71;51.09;98277.16;5009083;28;20053;-67
2023/04/26 09:19:57;;;;;;;3.97;1.48;;;;;;;7.74;51.13;98271.13;4991425;28;20085;-69
2023/04/26 09:22:33;;;;;;;4.13;2.10;;;;;;;7.80;51.14;98283.63;5008729;28;20026;-67
2023/04/26 09:24:59;;;;;;;6.40;2.08;;;;;;;7.86;50.98;98282.50;5009033;28;20026;-68
2023/04/26 09:27:36;;;;;;;3.47;1.70;;;;;;;7.86;50.49;98285.22;4991488;28;20387;-69
2023/04/26 09:30:15;;;;;;;3.47;1.30;;;;;;;7.92;50.23;98279.75;5008691;28;20463;-68
2023/04/26 09:33:05;;;;;;;7.47;1.90;;;;;;;8.02;50.14;98282.41;5007633;28;20479;-67
2023/04/26 09:35:33;;;;;;;13.35;3.40;;;;;;;8.10;50.18;98283.72;5009269;28;20388;-69
2023/04/26 09:38:08;;;;;;;10.00;3.00;;;;;;;8.14;50.06;98285.59;5009055;28;20037;-66
2023/04/26 09:40:48;;;;;;;5.35;1.77;;;;;;;8.16;49.41;98297.03;5008732;28;20030;-67
2023/04/26 09:43:14;;;;;;;5.28;1.27;;;;;;;8.14;48.51;98290.25;5008998;28;20458;-67
2023/04/26 09:45:51;;;;;;;13.60;7.10;;;;;;;8.09;48.82;98280.19;5008955;28;20030;-68
2023/04/26 09:48:29;;;;;;;12.07;4.03;;;;;;;8.10;48.32;98283.72;5008487;28;20069;-68
2023/04/26 09:51:01;;;;;;;6.07;2.30;;;;;;;8.11;47.43;98277.16;5008707;28;20305;-68
2023/04/26 09:53:30;;;;;;;4.60;1.50;;;;;;;8.13;47.71;98277.69;5008426;28;20026;-68
2023/04/26 09:56:20;;;;;;;3.22;1.48;;;;;;;8.22;48.70;98266.94;5008526;28;20022;-68
2023/04/26 09:58:46;;;;;;;5.82;2.83;;;;;;;8.30;48.00;98269.91;5008785;28;20029;-68
2023/04/26 10:01:13;;;;;;;3.33;1.30;;;;;;;8.37;46.87;98268.75;5008107;28;20539;-68
2023/04/26 10:03:41;;;;;;;3.67;1.60;;;;;;;8.40;46.99;98270.91;4990600;28;20054;-68
2023/04/26 10:06:07;;;;;;;7.75;2.90;;;;;;;8.42;45.73;98277.72;5008436;28;20030;-67
2023/04/26 10:08:33;;;;;;;3.35;1.50;;;;;;;8.43;46.28;98264.88;5008240;28;20095;-68
2023/04/26 10:11:01;;;;;;;10.10;2.65;;;;;;;8.43;44.75;98279.34;4990790;28;20025;-68
2023/04/26 10:13:26;;;;;;;4.65;1.05;;;;;;;8.38;44.40;98271.19;5008523;28;20067;-67
2023/04/26 10:15:52;;;;;;;3.95;1.70;;;;;;;8.35;44.67;98278.03;5007712;28;20030;-68
2023/04/26 10:18:18;;;;;;;3.97;1.35;;;;;;;8.32;43.87;98273.16;5008406;28;20029;-68
2023/04/26 10:20:47;;;;;;;7.50;2.13;;;;;;;8.26;44.15;98281.69;4989944;28;20491;-68
2023/04/26 10:23:20;;;;;;;5.82;2.13;;;;;;;8.24;44.49;98278.41;5008020;28;20036;-67
2023/04/26 10:25:46;;;;;;;4.65;1.70;;;;;;;8.26;44.49;98279.78;5007920;28;20033;-68
2023/04/26 10:28:11;;;;;;;8.38;3.20;;;;;;;8.39;45.00;98274.75;5007764;28;20034;-68
2023/04/26 10:30:56;;;;;;;4.90;1.70;;;;;;;8.57;45.38;98281.44;5008161;28;20029;-68
2023/04/26 10:33:22;;;;;;;4.03;1.73;;;;;;;8.67;44.80;98283.28;5007996;28;20044;-68
2023/04/26 10:36:13;;;;;;;5.32;1.27;;;;;;;8.64;44.40;98285.50;5008201;28;20034;-68
2023/04/26 10:39:00;;;;;;;7.22;2.13;;;;;;;8.60;43.39;98281.69;5008070;28;20104;-68
2023/04/26 10:41:29;;;;;;;2.00;1.00;;;;;;;8.52;41.42;98295.19;5007205;28;20407;-69
2023/04/26 10:43:55;;;;;;;3.40;1.55;;;;;;;8.42;42.40;98291.41;5007582;28;20041;-68
2023/04/26 10:46:38;;;;;;;1.55;0.98;;;;;;;8.40;43.12;98277.19;5006342;28;20038;-68
2023/04/26 10:49:17;;;;;;;4.50;1.50;;;;;;;8.44;42.80;98281.00;5005364;28;20042;-68
2023/04/26 10:52:09;;;;;;;4.35;1.38;;;;;;;8.51;43.21;98288.88;5006851;28;20065;-68
2023/04/26 10:54:50;;;;;;;3.55;1.10;;;;;;;8.57;43.34;98278.72;5004452;28;20078;-68
2023/04/26 10:57:16;;;;;;;6.38;1.98;;;;;;;8.69;43.49;98276.41;5007239;28;20037;-68
2023/04/26 11:00:09;;;;;;;3.17;1.70;;;;;;;8.82;43.46;98274.13;5005264;28;20087;-69
2023/04/26 11:02:45;;;;;;;3.85;0.95;;;;;;;9.02;43.64;98273.09;5006305;28;20057;-69
2023/04/26 11:05:49;;;;;;;5.38;1.00;;;;;;;9.17;44.04;98267.41;4989035;28;20030;-68
2023/04/26 11:08:17;;;;;;;4.22;1.50;;;;;;;9.27;43.11;98266.50;5006694;28;20048;-67
2023/04/26 11:10:48;;;;;;;5.10;1.20;;;;;;;9.29;42.86;98263.47;5004787;28;20123;-67
2023/04/26 11:13:14;;;;;;;4.03;1.50;;;;;;;9.29;41.56;98272.50;5006100;28;20042;-68
2023/04/26 11:15:39;;;;;;;6.15;1.58;;;;;;;9.18;40.42;98282.72;5005688;28;20030;-68
2023/04/26 11:18:05;;;;;;;4.95;1.65;;;;;;;9.07;40.42;98279.31;5006188;28;20091;-66
2023/04/26 11:20:31;;;;;;;5.70;2.10;;;;;;;8.96;40.55;98280.53;5005170;28;20040;-68
2023/04/26 11:22:58;;;;;;;6.63;1.52;;;;;;;8.89;41.14;98286.34;5006742;28;20117;-68
2023/04/26 11:25:25;;;;;;;5.60;1.95;;;;;;;8.95;41.52;98281.66;5007013;28;20034;-68
2023/04/26 11:27:55;;;;;;;2.92;0.90;;;;;;;9.08;40.94;98275.47;5006907;28;20032;-69
2023/04/26 11:30:20;;;;;;;2.05;0.80;;;;;;;9.23;42.19;98277.19;5006158;28;20041;-68
2023/04/26 11:32:46;;;;;;;5.25;2.13;;;;;;;9.35;41.28;98275.97;5004371;28;20014;-68
2023/04/26 11:35:11;;;;;;;4.88;1.92;;;;;;;9.40;41.76;98278.66;5006425;28;20464;-67
2023/04/26 11:37:36;;;;;;;2.60;1.40;;;;;;;9.46;40.53;98288.44;5006640;28;20026;-68
2023/04/26 11:40:02;;;;;;;4.28;1.35;;;;;;;9.49;39.79;98285.13;5006101;28;20021;-68